createdAt,value
2018-02-01T00:00:17.928Z,6.87
2018-02-01T00:02:48.783Z,6.86
2018-02-01T00:05:19.565Z,6.80
2018-02-01T00:07:50.305Z,6.76
2018-02-01T00:10:21.048Z,6.79
2018-02-01T00:12:51.902Z,6.79
2018-02-01T00:15:22.675Z,6.78
2018-02-01T00:17:53.418Z,6.75
2018-02-01T00:20:24.180Z,6.74
2018-02-01T00:22:54.912Z,6.78
2018-02-01T00:25:25.672Z,6.71
2018-02-01T00:27:56.407Z,6.72
2018-02-01T00:30:27.155Z,6.69
2018-02-01T00:32:57.914Z,6.75
2018-02-01T00:35:28.701Z,6.79
2018-02-01T00:37:59.468Z,6.72
2018-02-01T00:40:30.213Z,6.71
2018-02-01T00:43:01.016Z,6.68
2018-02-01T00:45:31.786Z,6.66
2018-02-01T00:48:06.601Z,6.65
2018-02-01T00:50:37.353Z,6.68
2018-02-01T00:53:08.093Z,6.66
2018-02-01T00:55:38.841Z,6.64
2018-02-01T00:58:09.568Z,6.63
2018-02-01T01:00:40.351Z,6.67
2018-02-01T01:03:11.092Z,6.65
2018-02-01T01:05:41.860Z,6.67
2018-02-01T01:08:12.597Z,6.63
2018-02-01T01:10:43.349Z,6.61
2018-02-01T01:13:14.096Z,6.65
2018-02-01T01:15:44.873Z,6.60
2018-02-01T01:18:15.624Z,6.61
2018-02-01T01:20:46.383Z,6.60
2018-02-01T01:23:17.113Z,6.59
2018-02-01T01:25:47.888Z,6.57
2018-02-01T01:28:18.651Z,6.55
2018-02-01T01:30:49.397Z,6.61
2018-02-01T01:33:20.144Z,6.56
2018-02-01T01:35:50.909Z,6.55
2018-02-01T01:38:21.641Z,6.55
2018-02-01T01:40:52.402Z,6.54
2018-02-01T01:43:23.173Z,6.53
2018-02-01T01:46:06.096Z,6.56
2018-02-01T01:48:36.846Z,6.54
2018-02-01T01:51:07.607Z,6.56
2018-02-01T01:53:38.369Z,6.58
2018-02-01T01:56:09.119Z,6.55
2018-02-01T01:58:39.881Z,6.53
2018-02-01T02:01:10.672Z,6.50
2018-02-01T02:03:41.404Z,6.54
2018-02-01T02:06:12.152Z,6.53
2018-02-01T02:08:42.898Z,6.53
2018-02-01T02:11:13.665Z,6.56
2018-02-01T02:13:44.412Z,6.54
2018-02-01T02:16:15.152Z,6.54
2018-02-01T02:18:45.887Z,6.52
2018-02-01T02:21:16.661Z,6.55
2018-02-01T02:23:47.412Z,6.58
2018-02-01T02:26:18.155Z,6.59
2018-02-01T02:28:48.901Z,6.57
2018-02-01T02:31:19.664Z,6.54
2018-02-01T02:33:50.412Z,6.60
2018-02-01T02:36:21.160Z,6.57
2018-02-01T02:38:52.999Z,6.61
2018-02-01T02:41:23.747Z,6.58
2018-02-01T02:43:54.476Z,6.56
2018-02-01T02:46:25.253Z,6.58
2018-02-01T02:48:55.994Z,6.57
2018-02-01T02:51:26.757Z,6.56
2018-02-01T02:53:57.521Z,6.54
2018-02-01T02:56:28.272Z,6.52
2018-02-01T02:58:59.021Z,6.54
2018-02-01T03:01:29.777Z,6.53
2018-02-01T03:04:00.511Z,6.56
2018-02-01T03:06:31.301Z,6.54
2018-02-01T03:09:02.057Z,6.55
2018-02-01T03:11:32.799Z,6.51
2018-02-01T03:14:03.556Z,6.51
2018-02-01T03:16:34.296Z,6.52
2018-02-01T03:19:05.050Z,6.49
2018-02-01T03:21:35.781Z,6.51
2018-02-01T03:24:06.511Z,6.55
2018-02-01T03:26:37.252Z,6.51
2018-02-01T03:29:07.987Z,6.51
2018-02-01T03:31:38.736Z,6.52
2018-02-01T03:34:09.463Z,6.55
2018-02-01T03:36:40.210Z,6.51
2018-02-01T03:39:10.985Z,6.51
2018-02-01T03:41:41.720Z,6.52
2018-02-01T03:44:12.439Z,6.51
2018-02-01T03:46:43.198Z,6.44
2018-02-01T03:49:13.932Z,6.49
2018-02-01T03:51:44.668Z,6.50
2018-02-01T03:54:15.408Z,6.50
2018-02-01T03:56:46.150Z,6.49
2018-02-01T03:59:16.949Z,6.48
2018-02-01T04:01:47.691Z,6.45
2018-02-01T04:04:18.451Z,6.46
2018-02-01T04:06:49.191Z,6.47
2018-02-01T04:09:19.940Z,6.43
2018-02-01T04:11:50.728Z,6.42
2018-02-01T04:14:21.468Z,6.43
2018-02-01T04:16:52.216Z,6.44
2018-02-01T04:19:22.944Z,6.43
2018-02-01T04:21:53.717Z,6.37
2018-02-01T04:24:24.455Z,6.44
2018-02-01T04:26:55.239Z,6.39
2018-02-01T04:29:25.983Z,6.36
2018-02-01T04:31:56.732Z,6.41
2018-02-01T04:34:27.469Z,6.39
2018-02-01T04:36:58.240Z,6.46
2018-02-01T04:39:28.975Z,6.43
2018-02-01T04:41:59.733Z,6.42
2018-02-01T04:44:30.473Z,6.42
2018-02-01T04:47:01.238Z,6.32
2018-02-01T04:49:31.973Z,6.30
2018-02-01T04:52:02.762Z,6.31
2018-02-01T04:54:33.501Z,6.36
2018-02-01T04:57:04.260Z,6.30
2018-02-01T04:59:35.048Z,6.34
2018-02-01T05:02:05.809Z,6.32
2018-02-01T05:04:36.569Z,6.29
2018-02-01T05:07:07.348Z,6.26
2018-02-01T05:09:38.084Z,6.26
2018-02-01T05:12:08.825Z,6.24
2018-02-01T05:14:39.576Z,6.23
2018-02-01T05:17:10.331Z,6.19
2018-02-01T05:19:41.088Z,6.20
2018-02-01T05:22:11.843Z,6.22
2018-02-01T05:24:42.588Z,6.19
2018-02-01T05:27:13.345Z,6.16
2018-02-01T05:29:44.060Z,6.10
2018-02-01T05:32:14.809Z,5.93
2018-02-01T05:34:52.564Z,5.78
2018-02-01T05:37:23.317Z,5.63
2018-02-01T05:39:54.071Z,5.49
2018-02-01T05:42:24.836Z,5.42
2018-02-01T05:44:55.575Z,5.32
2018-02-01T05:47:26.369Z,5.27
2018-02-01T05:49:57.124Z,5.18
2018-02-01T05:52:27.884Z,5.12
2018-02-01T05:54:58.649Z,5.07
2018-02-01T05:57:29.389Z,5.02
2018-02-01T06:00:00.181Z,5.00
2018-02-01T06:02:30.967Z,4.92
2018-02-01T06:05:01.712Z,4.91
2018-02-01T06:07:32.462Z,4.90
2018-02-01T06:10:03.216Z,4.90
2018-02-01T06:12:33.985Z,4.90
2018-02-01T06:15:04.749Z,4.86
2018-02-01T06:17:35.551Z,4.83
2018-02-01T06:20:06.324Z,4.80
2018-02-01T06:22:37.475Z,4.78
2018-02-01T06:25:08.213Z,4.76
2018-02-01T06:27:38.988Z,4.72
2018-02-01T06:30:09.736Z,4.73
2018-02-01T06:32:40.496Z,4.72
2018-02-01T06:35:11.233Z,4.72
2018-02-01T06:37:42.004Z,4.70
2018-02-01T06:40:12.752Z,4.67
2018-02-01T06:42:43.510Z,4.69
2018-02-01T06:45:14.256Z,4.69
2018-02-01T06:47:45.006Z,4.66
2018-02-01T06:50:15.745Z,4.58
2018-02-01T06:52:46.501Z,4.61
2018-02-01T06:55:17.238Z,4.59
2018-02-01T06:57:48.000Z,4.55
2018-02-01T07:00:18.752Z,4.50
2018-02-01T07:02:49.592Z,4.52
2018-02-01T07:05:20.344Z,4.54
2018-02-01T07:07:51.113Z,4.57
2018-02-01T07:10:21.877Z,4.57
2018-02-01T07:12:52.635Z,4.48
2018-02-01T07:15:23.364Z,4.50
2018-02-01T07:17:54.136Z,4.53
2018-02-01T07:20:24.876Z,4.46
2018-02-01T07:22:55.708Z,4.55
2018-02-01T07:25:26.500Z,4.52
2018-02-01T07:27:57.294Z,4.46
2018-02-01T07:30:28.038Z,4.46
2018-02-01T07:32:58.816Z,4.49
2018-02-01T07:35:29.551Z,4.49
2018-02-01T07:38:00.315Z,4.55
2018-02-01T07:40:31.063Z,4.65
2018-02-01T07:43:01.821Z,4.70
2018-02-01T07:58:54.744Z,5.07
2018-02-01T08:01:25.479Z,5.05
2018-02-01T08:03:56.246Z,5.11
2018-02-01T08:06:26.981Z,5.11
2018-02-01T08:08:57.761Z,5.12
2018-02-01T08:11:28.511Z,5.23
2018-02-01T08:13:59.264Z,5.22
2018-02-01T08:16:30.081Z,5.35
2018-02-01T08:19:00.829Z,5.38
2018-02-01T08:21:31.705Z,5.42
2018-02-01T08:24:02.456Z,5.42
2018-02-01T08:26:33.178Z,5.45
2018-02-01T08:29:03.932Z,5.29
2018-02-01T08:31:34.709Z,5.29
2018-02-01T08:34:05.468Z,5.27
2018-02-01T08:36:36.293Z,5.19
2018-02-01T08:39:07.137Z,5.22
2018-02-01T08:41:37.973Z,5.28
2018-02-01T08:57:41.101Z,5.71
2018-02-01T09:00:11.889Z,5.68
2018-02-01T09:02:42.659Z,5.61
2018-02-01T09:05:13.479Z,5.70
2018-02-01T09:07:44.335Z,5.76
2018-02-01T09:10:15.147Z,5.69
2018-02-01T09:12:45.992Z,5.76
2018-02-01T09:15:16.754Z,5.59
2018-02-01T09:17:47.535Z,5.53
2018-02-01T09:20:18.278Z,5.28
2018-02-01T09:22:49.092Z,5.32
2018-02-01T09:25:20.047Z,5.41
2018-02-01T09:27:50.940Z,5.46
2018-02-01T09:30:21.713Z,5.48
2018-02-01T09:32:52.513Z,5.58
2018-02-01T09:35:38.284Z,5.57
2018-02-01T09:38:09.044Z,5.45
2018-02-01T09:40:39.809Z,5.27
2018-02-01T09:43:10.568Z,5.12
2018-02-01T09:45:41.329Z,5.05
2018-02-01T09:48:12.089Z,5.08
2018-02-01T09:50:42.853Z,5.26
2018-02-01T09:53:13.697Z,5.22
2018-02-01T09:55:44.537Z,5.11
2018-02-01T09:58:15.342Z,5.02
2018-02-01T10:00:46.105Z,5.02
2018-02-01T10:03:17.972Z,5.06
2018-02-01T10:05:49.000Z,5.14
2018-02-01T10:08:20.036Z,5.18
2018-02-01T10:10:50.897Z,5.09
2018-02-01T10:13:21.717Z,5.15
2018-02-01T10:16:09.151Z,5.05
2018-02-01T10:21:38.784Z,5.10
2018-02-01T10:24:09.599Z,4.99
2018-02-01T10:26:40.433Z,4.91
2018-02-01T10:29:11.266Z,4.98
2018-02-01T10:31:42.037Z,5.12
2018-02-01T10:34:12.844Z,5.06
2018-02-01T10:36:43.684Z,5.06
2018-02-01T10:39:14.520Z,4.87
2018-02-01T10:41:45.364Z,4.88
2018-02-01T10:44:22.932Z,4.96
2018-02-01T10:46:53.802Z,4.97
2018-02-01T10:49:25.648Z,5.01
2018-02-01T10:54:50.328Z,5.08
2018-02-01T10:57:21.266Z,4.92
2018-02-01T10:59:54.051Z,5.04
2018-02-01T11:02:24.808Z,4.97
2018-02-01T11:04:55.577Z,5.11
2018-02-01T11:10:24.543Z,5.06
2018-02-01T11:12:55.383Z,5.02
2018-02-01T11:15:26.240Z,5.13
2018-02-01T11:17:56.998Z,5.22
2018-02-01T11:20:27.764Z,5.30
2018-02-01T11:22:58.534Z,5.51
2018-02-01T11:25:29.335Z,5.39
2018-02-01T11:28:00.111Z,5.51
2018-02-01T11:30:30.873Z,5.47
2018-02-01T11:33:01.685Z,5.54
2018-02-01T11:35:32.528Z,5.61
2018-02-01T11:38:03.370Z,5.55
2018-02-01T11:40:34.162Z,5.36
2018-02-01T11:43:05.017Z,5.41
2018-02-01T11:45:35.788Z,5.29
2018-02-01T11:48:07.636Z,5.38
2018-02-01T11:50:38.372Z,5.56
2018-02-01T11:53:11.247Z,5.61
2018-02-01T11:55:42.076Z,5.73
2018-02-01T11:58:12.922Z,5.84
2018-02-01T12:00:43.736Z,5.98
2018-02-01T12:03:14.488Z,5.99
2018-02-01T12:05:45.320Z,5.90
2018-02-01T12:08:16.136Z,5.90
2018-02-01T12:10:46.928Z,5.98
2018-02-01T12:13:17.669Z,5.85
2018-02-01T12:15:48.431Z,5.84
2018-02-01T12:18:19.195Z,5.84
2018-02-01T12:20:50.035Z,5.98
2018-02-01T12:23:20.778Z,6.17
2018-02-01T12:25:51.574Z,6.22
2018-02-01T12:28:22.361Z,6.33
2018-02-01T12:30:53.163Z,6.33
2018-02-01T12:33:23.928Z,6.12
2018-02-01T12:35:54.737Z,6.07
2018-02-01T12:38:25.504Z,6.18
2018-02-01T12:40:56.252Z,6.07
2018-02-01T12:43:27.017Z,5.94
2018-02-01T12:45:57.768Z,5.93
2018-02-01T12:48:29.644Z,6.00
2018-02-01T12:51:00.385Z,6.02
2018-02-01T12:53:31.146Z,5.96
2018-02-01T12:56:01.941Z,5.94
2018-02-01T12:58:32.760Z,5.97
2018-02-01T13:01:03.598Z,6.11
2018-02-01T13:03:34.428Z,6.12
2018-02-01T13:06:05.318Z,6.23
2018-02-01T13:08:36.038Z,6.25
2018-02-01T13:11:06.786Z,6.15
2018-02-01T13:13:37.558Z,6.20
2018-02-01T13:16:08.414Z,6.26
2018-02-01T13:18:39.244Z,6.31
2018-02-01T13:21:14.277Z,6.27
2018-02-01T13:23:45.034Z,6.28
2018-02-01T13:26:15.851Z,6.27
2018-02-01T13:28:46.602Z,6.14
2018-02-01T13:31:17.370Z,6.20
2018-02-01T13:33:48.170Z,6.25
2018-02-01T13:36:19.049Z,6.00
2018-02-01T13:38:49.820Z,6.07
2018-02-01T13:41:20.692Z,6.12
2018-02-01T13:43:51.429Z,5.97
2018-02-01T13:46:22.295Z,5.98
2018-02-01T13:48:53.080Z,5.92
2018-02-01T13:51:23.858Z,5.83
2018-02-01T13:53:54.625Z,5.95
2018-02-01T13:56:25.468Z,5.85
2018-02-01T13:58:56.204Z,5.95
2018-02-01T14:01:27.040Z,5.90
2018-02-01T14:03:58.026Z,5.97
2018-02-01T14:06:28.802Z,5.91
2018-02-01T14:08:59.583Z,5.81
2018-02-01T14:11:30.351Z,5.80
2018-02-01T14:14:01.111Z,5.82
2018-02-01T14:16:31.962Z,5.70
2018-02-01T14:19:02.749Z,5.49
2018-02-01T14:21:33.562Z,5.35
2018-02-01T14:24:04.307Z,5.30
2018-02-01T14:26:35.112Z,5.26
2018-02-01T14:29:05.848Z,5.25
2018-02-01T14:31:36.686Z,5.32
2018-02-01T14:34:07.428Z,5.31
2018-02-01T14:36:38.208Z,5.28
2018-02-01T14:39:08.967Z,5.26
2018-02-01T14:41:39.808Z,5.25
2018-02-01T14:44:10.660Z,5.19
2018-02-01T14:46:41.517Z,5.07
2018-02-01T14:49:12.324Z,4.96
2018-02-01T14:51:43.177Z,5.03
2018-02-01T14:54:27.642Z,5.00
2018-02-01T14:57:02.253Z,4.94
2018-02-01T14:59:34.084Z,4.82
2018-02-01T15:02:04.836Z,4.92
2018-02-01T15:04:35.612Z,4.85
2018-02-01T15:07:06.384Z,4.77
2018-02-01T15:09:37.226Z,4.76
2018-02-01T15:12:08.000Z,4.75
2018-02-01T15:14:38.784Z,4.65
2018-02-01T15:17:09.544Z,4.65
2018-02-01T15:19:40.299Z,4.63
2018-02-01T15:22:11.101Z,4.59
2018-02-01T15:24:41.848Z,4.48
2018-02-01T15:27:12.612Z,4.51
2018-02-01T15:29:43.348Z,4.38
2018-02-01T15:32:16.207Z,4.25
2018-02-01T15:34:47.029Z,4.23
2018-02-01T15:37:17.817Z,4.16
2018-02-01T15:39:48.604Z,4.06
2018-02-01T15:42:19.359Z,4.01
2018-02-01T15:44:50.117Z,3.95
2018-02-01T15:47:20.905Z,3.91
2018-02-01T15:49:51.651Z,3.76
2018-02-01T15:52:22.400Z,3.71
2018-02-01T15:54:53.260Z,3.65
2018-02-01T15:57:24.064Z,3.56
2018-02-01T15:59:54.799Z,3.58
2018-02-01T16:02:25.564Z,3.55
2018-02-01T16:04:56.332Z,3.45
2018-02-01T16:07:27.156Z,3.21
2018-02-01T16:09:57.924Z,3.02
2018-02-01T16:12:28.705Z,2.81
2018-02-01T16:14:59.460Z,2.77
2018-02-01T16:17:30.252Z,2.80
2018-02-01T16:20:01.000Z,2.75
2018-02-01T16:22:31.835Z,2.74
2018-02-01T16:25:02.589Z,2.72
2018-02-01T16:27:33.348Z,2.69
2018-02-01T16:30:04.120Z,2.70
2018-02-01T16:32:34.885Z,2.64
2018-02-01T16:35:05.676Z,2.62
2018-02-01T16:37:36.429Z,2.67
2018-02-01T16:40:07.207Z,2.74
2018-02-01T16:42:37.984Z,2.72
2018-02-01T16:45:08.724Z,2.74
2018-02-01T16:47:39.517Z,2.77
2018-02-01T16:50:10.249Z,2.71
2018-02-01T16:52:41.052Z,2.70
2018-02-01T16:55:11.817Z,2.82
2018-02-01T16:57:42.558Z,2.67
2018-02-01T17:00:13.323Z,2.65
2018-02-01T17:02:44.089Z,2.55
2018-02-01T17:05:21.917Z,2.56
2018-02-01T17:07:52.727Z,2.55
2018-02-01T17:10:23.472Z,2.43
2018-02-01T17:12:54.275Z,2.46
2018-02-01T17:15:25.044Z,2.49
2018-02-01T17:17:55.802Z,2.38
2018-02-01T17:20:26.584Z,2.32
2018-02-01T17:22:57.356Z,2.39
2018-02-01T17:25:28.104Z,2.36
2018-02-01T17:27:58.857Z,2.32
2018-02-01T17:30:29.611Z,2.34
2018-02-01T17:33:00.390Z,2.32
2018-02-01T17:35:31.147Z,2.33
2018-02-01T17:38:01.904Z,2.31
2018-02-01T17:40:32.630Z,2.25
2018-02-01T17:43:03.394Z,2.28
2018-02-01T17:45:34.136Z,2.26
2018-02-01T17:48:04.880Z,2.25
2018-02-01T17:50:35.619Z,2.20
2018-02-01T17:53:06.379Z,2.17
2018-02-01T17:55:37.136Z,2.20
2018-02-01T17:58:07.898Z,2.14
2018-02-01T18:00:38.654Z,2.09
2018-02-01T18:03:09.452Z,2.09
2018-02-01T18:05:40.225Z,2.01
2018-02-01T18:08:10.969Z,1.92
2018-02-01T18:10:41.720Z,1.99
2018-02-01T18:13:12.544Z,1.93
2018-02-01T18:15:43.318Z,1.90
2018-02-01T18:18:14.081Z,1.90
2018-02-01T18:20:44.833Z,1.83
2018-02-01T18:23:15.588Z,1.76
2018-02-01T18:25:46.341Z,1.65
2018-02-01T18:28:17.112Z,1.70
2018-02-01T18:30:47.865Z,1.74
2018-02-01T18:33:18.652Z,1.74
2018-02-01T18:35:49.431Z,1.77
2018-02-01T18:38:20.251Z,1.83
2018-02-01T18:40:51.011Z,1.87
2018-02-01T18:43:21.820Z,1.98
2018-02-01T18:45:52.532Z,1.94
2018-02-01T18:48:23.284Z,1.83
2018-02-01T18:50:54.039Z,1.84
2018-02-01T18:53:24.845Z,1.78
2018-02-01T18:55:55.647Z,1.79
2018-02-01T18:58:26.416Z,1.83
2018-02-01T19:00:57.164Z,1.84
2018-02-01T19:03:27.951Z,1.82
2018-02-01T19:05:58.725Z,1.91
2018-02-01T19:08:29.504Z,1.91
2018-02-01T19:11:00.243Z,1.86
2018-02-01T19:13:31.012Z,1.84
2018-02-01T19:16:01.765Z,1.87
2018-02-01T19:18:32.584Z,1.88
2018-02-01T19:21:03.361Z,1.87
2018-02-01T19:23:34.110Z,1.85
2018-02-01T19:26:04.920Z,1.89
2018-02-01T19:28:35.729Z,1.83
2018-02-01T19:31:06.556Z,1.78
2018-02-01T19:33:37.321Z,1.77
2018-02-01T19:36:08.119Z,1.76
2018-02-01T19:38:38.916Z,1.83
2018-02-01T19:41:09.661Z,1.84
2018-02-01T19:43:40.462Z,1.87
2018-02-01T19:46:11.232Z,1.89
2018-02-01T19:48:42.025Z,1.89
2018-02-01T19:51:12.815Z,1.86
2018-02-01T19:53:43.613Z,1.92
2018-02-01T19:56:14.367Z,1.99
2018-02-01T19:58:45.152Z,1.98
2018-02-01T20:01:15.961Z,1.94
2018-02-01T20:03:46.724Z,1.88
2018-02-01T20:06:17.509Z,1.87
2018-02-01T20:08:48.315Z,1.86
2018-02-01T20:11:19.120Z,1.89
2018-02-01T20:13:49.953Z,1.90
2018-02-01T20:16:20.759Z,1.89
2018-02-01T20:18:51.541Z,2.07
2018-02-01T20:21:22.424Z,2.05
2018-02-01T20:23:53.208Z,2.00
2018-02-01T20:26:23.960Z,2.03
2018-02-01T20:28:54.715Z,2.03
2018-02-01T20:31:25.500Z,1.98
2018-02-01T20:33:56.281Z,1.93
2018-02-01T20:36:27.074Z,1.83
2018-02-01T20:38:58.896Z,1.96
2018-02-01T20:41:29.649Z,2.04
2018-02-01T20:44:00.384Z,1.97
2018-02-01T20:46:31.214Z,1.95
2018-02-01T20:49:02.039Z,1.87
2018-02-01T20:51:32.819Z,1.91
2018-02-01T20:54:03.647Z,1.90
2018-02-01T20:56:34.376Z,1.83
2018-02-01T20:59:05.194Z,1.83
2018-02-01T21:01:36.005Z,1.90
2018-02-01T21:04:06.792Z,1.92
2018-02-01T21:06:37.546Z,1.92
2018-02-01T21:09:08.355Z,1.97
2018-02-01T21:11:39.112Z,1.92
2018-02-01T21:14:09.984Z,1.90
2018-02-01T21:16:40.766Z,1.94
2018-02-01T21:19:11.650Z,1.82
2018-02-01T21:21:42.436Z,1.77
2018-02-01T21:24:13.231Z,1.65
2018-02-01T21:26:43.981Z,1.58
2018-02-01T21:29:14.791Z,1.56
2018-02-01T21:31:45.615Z,1.59
2018-02-01T21:34:16.440Z,1.64
2018-02-01T21:36:47.192Z,1.59
2018-02-01T21:39:17.976Z,1.54
2018-02-01T21:41:55.652Z,1.55
2018-02-01T21:44:26.385Z,1.63
2018-02-01T21:46:57.192Z,1.62
2018-02-01T21:49:28.107Z,1.64
2018-02-01T21:51:58.881Z,1.62
2018-02-01T21:54:29.644Z,1.66
2018-02-01T21:57:00.406Z,1.63
2018-02-01T21:59:31.169Z,1.61
2018-02-01T22:02:01.953Z,1.58
2018-02-01T22:04:32.783Z,1.58
2018-02-01T22:07:03.550Z,1.50
2018-02-01T22:09:34.334Z,1.51
2018-02-01T22:12:05.151Z,1.59
2018-02-01T22:14:35.972Z,1.67
2018-02-01T22:17:06.745Z,1.58
2018-02-01T22:19:37.525Z,1.56
2018-02-01T22:22:08.348Z,1.54
2018-02-01T22:24:39.138Z,1.56
2018-02-01T22:27:09.914Z,1.41
2018-02-01T22:32:48.045Z,1.52
2018-02-01T22:35:18.805Z,1.48
2018-02-01T22:37:49.544Z,1.53
2018-02-01T22:40:20.301Z,1.60
2018-02-01T22:42:57.687Z,1.71
2018-02-01T22:45:28.432Z,1.72
2018-02-01T22:47:59.180Z,1.64
2018-02-01T22:50:29.970Z,1.64
2018-02-01T22:53:00.746Z,1.67
2018-02-01T22:55:31.526Z,1.66
2018-02-01T22:58:02.318Z,1.64
2018-02-01T23:00:33.062Z,1.54
2018-02-01T23:03:03.810Z,1.49
2018-02-01T23:05:34.632Z,1.45
2018-02-01T23:08:05.435Z,1.48
2018-02-01T23:10:36.173Z,1.46
2018-02-01T23:13:06.951Z,1.53
2018-02-01T23:15:37.702Z,1.53
2018-02-01T23:18:08.522Z,1.53
2018-02-01T23:20:39.274Z,1.52
2018-02-01T23:23:10.095Z,1.49
2018-02-01T23:25:40.840Z,1.46
2018-02-01T23:28:11.624Z,1.45
2018-02-01T23:30:42.375Z,1.42
2018-02-01T23:33:13.145Z,1.35
2018-02-01T23:35:43.945Z,1.35
2018-02-01T23:38:14.732Z,1.41
2018-02-01T23:40:45.512Z,1.44
2018-02-01T23:43:16.289Z,1.44
2018-02-01T23:45:47.033Z,1.46
2018-02-01T23:48:18.851Z,1.51
2018-02-01T23:50:49.603Z,1.56
2018-02-01T23:53:20.393Z,1.53
2018-02-01T23:55:51.162Z,1.64
2018-02-01T23:58:21.925Z,1.68
